EHEH/EIN METAR and TAF weather

Enter ICAO airport designator
Station Type Date Time Source
EHEH METAR 2019/06/16 06:25 UTC NOAA

EHEH 160625Z AUTO 21009KT 180V260 9999 NCD 16/12 Q1019 BLU 22008KT CAVOK


Station Type Date Time Source
EHEH Decoded METAR 2019/06/16 06:25 UTC NOAA

Eindhoven, Netherlands (EHEH) 51-27N 005-25E 28M
Jun 16, 2019 - 02:25 AM EDT / 2019.06.16 0625 UTC
Wind: from the SSW (210 degrees) at 10 MPH (9 KT) (direction variable):0
Visibility: greater than 7 mile(s):0
Temperature: 60 F (16 C)
Dew Point: 53 F (12 C)
Relative Humidity: 77%
Pressure (altimeter): 30.09 in. Hg (1019 hPa)
ob: EHEH 160625Z AUTO 21009KT 180V260 9999 NCD 16/12 Q1019 BLU 22008KT CAVOK
cycle: 6

Station Type Date Time Source
EHEH TAF 2019/06/16 00:00 UTC NOAA

TAF EHEH 152314Z 1600/1706 19004KT 9999 FEW045 BKN080 PROB40 1600/1404 3500 BR MIFG
BECMG 1603/1605 23005KT PROB30
TEMPO 1613/1618 23010G20KT SCT025CB
BECMG 1618/1620 15004KT

Example: see airport list